Latest Coastal Weather Observations for Double Island Point

IDQ60701

Issued at 10:52 pm EST Wednesday 2 September 2015 (issued every 10 minutes, with the page automatically refreshed every 10 minutes)

About coastal observations | Map of coastal stations | Coastal observations for QLD | Marine services | Other Formats
Station Details ID: 040068 Name: DOUBLE ISLAND POINT LIGHTHOUSE Lat: -25.93 Lon: 153.19 Height: 95.64 m
Data from the previous 72 hours. | See also: Recent months at Double Island Point
Date/Time
EST
Temp

°C
Wind Pressure Rain
since 9am
mm
Weather Cloud Vis
km
Sea
Height
m
Swell
Dir
 
Speed
knots
Gust
knots
hPa Trend Height
m
Period
s
Dir
02/10:30pm 18.8 N 6 10 1015.3 - 0.0 - - - - - - -
02/10:00pm 18.8 N 6 8 1015.8 - 0.0 - - - - - - -
02/09:30pm 19.0 N 5 9 1016.0 - 0.0 - - - - - - -
02/09:00pm 19.2 N 7 11 1015.8 - 0.0 - - - - - - -
02/08:30pm 19.2 NNW 6 9 1016.1 - 0.0 - - - - - - -
02/08:00pm 19.2 N 7 10 1015.8 - 0.0 - - - - - - -
02/07:30pm 19.4 N 5 9 1015.8 - 0.0 - - - - - - -
02/07:00pm 19.6 N 6 9 1015.5 - 0.0 - - - - - - -
02/06:30pm 19.7 N 7 14 1015.8 - 0.0 - - - - - - -
02/06:00pm 20.0 NNW 11 16 1015.5 - 0.0 - - - - - - -
02/05:30pm 20.5 NNW 7 11 1015.3 - 0.0 - - - - - - -
02/05:00pm 21.2 N 7 11 1015.2 - 0.0 - - - - - - -
02/04:30pm 21.5 N 8 17 1015.2 - 0.0 - - - - - - -
02/04:00pm 22.1 NNE 21 24 1015.1 - 0.0 - - - - - - -
02/03:30pm 22.6 NNE 20 23 1015.2 - 0.0 - - - - - - -
02/03:00pm 22.8 N 18 24 1015.1 - 0.0 - - - - - - -
02/02:30pm 24.5 NNE 11 15 1015.5 - 0.0 - - - - - - -
02/02:00pm 24.8 NNE 9 12 1015.9 - 0.0 - - - - - - -
02/01:30pm 25.1 NNE 7 9 1016.4 - 0.0 - - - - - - -
02/01:00pm 24.7 NNE 6 8 1017.0 - 0.0 - - - - - - -
02/12:30pm 23.6 NE 4 6 1017.5 - 0.0 - - - - - - -
02/12:00pm 22.9 N 4 5 1018.2 - 0.0 - - - - - - -
02/11:30am 22.6 NNW 5 7 1018.6 - 0.0 - - - - - - -
02/11:00am 22.1 NNW 6 10 1019.1 - 0.0 - - - - - - -
02/10:30am 20.6 NW 11 13 1019.4 - 0.0 - - - - - - -
02/10:00am 20.0 NW 10 13 1019.6 - 0.0 - - - - - - -
02/09:30am 18.5 WNW 12 14 1019.4 - 0.0 - - - - - - -
02/09:00am 18.0 NW 11 13 1019.5 - 0.0 - - - - - - -
02/08:30am 20.1 NW 6 8 1019.5 - 0.0 - - - - - - -
02/08:00am 19.1 WNW 7 8 1019.0 - 0.0 - - - - - - -
02/07:30am 18.1 WNW 8 9 1018.6 - 0.0 - - - - - - -
02/07:00am 17.5 NW 6 8 1018.4 - 0.0 - - - - - - -
02/06:30am 17.9 CALM 0 2 1018.1 - 0.0 - - - - - - -
02/06:00am 17.6 W 4 5 1017.9 - 0.0 - - - - - - -
02/05:30am 17.3 W 4 6 1017.5 - 0.0 - - - - - - -
02/05:00am 15.9 WNW 10 11 1017.2 - 0.0 - - - - - - -
02/04:30am 15.9 WNW 11 12 1016.8 - 0.0 - - - - - - -
02/04:00am 15.6 WNW 13 15 1016.5 - 0.0 - - - - - - -
02/03:30am 15.7 WNW 15 17 1016.4 - 0.0 - - - - - - -
02/03:00am 15.5 WNW 14 15 1016.5 - 0.0 - - - - - - -
02/02:30am 15.6 NW 15 18 1016.8 - 0.0 - - - - - - -
02/02:00am 16.4 NW 9 11 1016.9 - 0.0 - - - - - - -
02/01:30am 18.3 SSW 12 13 1016.5 - 0.0 - - - - - - -
02/01:00am 16.8 WSW 10 13 1016.4 - 0.0 - - - - - - -
02/12:30am 17.0 W 12 14 1016.5 - 0.0 - - - - - - -
02/12:00am 17.1 W 15 19 1016.3 - 0.0 - - - - - - -
 
Date/Time
EST
Temp

°C
Wind Pressure Rain
since 9am
mm
Weather Cloud Vis
km
Sea
Height
m
Swell
Dir
 
Speed
knots
Gust
knots
hPa Trend Height
m
Period
s
Dir
01/11:30pm 17.1 WNW 15 19 1016.2 - 0.0 - - - - - - -
01/11:00pm 16.8 WNW 14 17 1016.4 - 0.0 - - - - - - -
01/10:30pm 16.8 WNW 12 14 1016.3 - 0.0 - - - - - - -
01/10:00pm 17.2 NW 12 15 1016.4 - 0.0 - - - - - - -
01/09:30pm 17.6 NW 14 17 1016.5 - 0.0 - - - - - - -
01/09:00pm 17.4 NW 10 13 1016.5 - 0.0 - - - - - - -
01/08:30pm 17.7 NNW 12 15 1016.2 - 0.0 - - - - - - -
01/08:00pm 17.8 NNW 9 14 1015.9 - 0.0 - - - - - - -
01/07:30pm 17.9 NNW 13 15 1015.6 - 0.0 - - - - - - -
01/07:00pm 17.8 N 5 9 1015.3 - 0.0 - - - - - - -
01/06:30pm 17.9 N 5 11 1014.9 - 0.0 - - - - - - -
01/06:00pm 18.1 N 10 15 1014.7 - 0.0 - - - - - - -
01/05:30pm 18.5 N 10 15 1014.3 - 0.0 - - - - - - -
01/05:00pm 19.6 NNE 12 15 1014.3 - 0.0 - - - - - - -
01/04:30pm 21.0 NNE 8 13 1014.1 - 0.0 - - - - - - -
01/04:00pm 21.5 NNE 4 7 1013.9 - 0.0 - - - - - - -
01/03:30pm 22.0 NNE 6 9 1013.8 - 0.0 - - - - - - -
01/03:00pm 22.0 NNE 7 10 1013.9 - 0.0 - - - - - - -
01/02:30pm 22.2 NNE 8 11 1014.1 - 0.0 - - - - - - -
01/02:00pm 22.8 NNW 4 9 1014.3 - 0.0 - - - - - - -
01/01:30pm 22.9 NNW 4 7 1014.7 - 0.0 - - - - - - -
01/01:00pm 22.2 N 5 7 1015.2 - 0.0 - - - - - - -
01/12:30pm 22.4 NNW 7 10 1015.5 - 0.0 - - - - - - -
01/12:00pm 21.4 NNW 10 14 1016.0 - 0.0 - - - - - - -
01/11:30am 21.6 NNW 8 10 1016.5 - 0.0 - - - - - - -
01/11:00am 20.4 NW 8 11 1017.0 - 0.0 - - - - - - -
01/10:30am 20.4 NNW 6 9 1017.3 - 0.0 - - - - - - -
01/10:00am 18.8 WNW 6 8 1017.4 - 0.0 - - - - - - -
01/09:30am 17.1 WNW 8 11 1017.6 - 0.0 - - - - - - -
01/09:00am 17.1 WNW 5 8 1017.8 - 0.0 - - - - - - -
01/08:30am 14.8 WNW 9 12 1017.7 - 0.0 - - - - - - -
01/08:00am 14.6 WNW 9 12 1017.5 - 0.0 - - - - - - -
01/07:30am 14.3 NNW 12 15 1017.3 - 0.0 - - - - - - -
01/07:00am 14.5 WNW 8 11 1016.9 - 0.0 - - - - - - -
01/06:30am 14.3 WSW 8 12 1016.6 - 0.0 - - - - - - -
01/06:00am 14.1 WSW 8 11 1016.2 - 0.0 - - - - - - -
01/05:30am 14.5 WSW 8 11 1016.0 - 0.0 - - - - - - -
01/05:00am 13.8 W 8 11 1015.7 - 0.0 - - - - - - -
01/04:30am 15.1 SSW 14 18 1015.6 - 0.0 - - - - - - -
01/04:00am 15.1 SW 13 18 1015.3 - 0.0 - - - - - - -
01/03:30am 15.3 SSW 16 21 1015.2 - 0.0 - - - - - - -
01/03:00am 13.8 SSW 12 18 1015.6 - 0.0 - - - - - - -
01/02:30am 14.2 SSW 13 14 1015.7 - 0.0 - - - - - - -
01/02:00am 15.1 S 13 17 1015.6 - 0.0 - - - - - - -
01/01:30am 14.8 SSW 14 16 1015.7 - 0.0 - - - - - - -
01/01:00am 15.3 S 13 15 1015.9 - 0.0 - - - - - - -
01/12:30am 16.5 SSW 16 21 1016.0 - 0.0 - - - - - - -
01/12:00am 15.9 SW 10 12 1016.2 - 0.0 - - - - - - -
 
Date/Time
EST
Temp

°C
Wind Pressure Rain
since 9am
mm
Weather Cloud Vis
km
Sea
Height
m
Swell
Dir
 
Speed
knots
Gust
knots
hPa Trend Height
m
Period
s
Dir
31/11:30pm 16.9 WSW 8 10 1016.3 - 0.0 - - - - - - -
31/11:00pm 17.4 SW 5 7 1016.2 - 0.0 - - - - - - -
31/10:30pm 17.3 WSW 3 5 1016.0 - 0.0 - - - - - - -
31/10:00pm 17.3 SSW 5 5 1015.9 - 0.0 - - - - - - -
31/09:30pm 17.2 SSW 5 6 1015.8 - 0.0 - - - - - - -
31/09:00pm 17.1 SW 4 5 1015.7 - 0.0 - - - - - - -
31/08:30pm 17.8 W 4 5 1015.5 - 0.0 - - - - - - -
31/08:00pm 17.3 NW 5 6 1015.3 - 0.0 - - - - - - -
31/07:30pm 17.2 N 4 7 1015.0 - 0.0 - - - - - - -
31/07:00pm 17.4 N 4 6 1014.8 - 0.0 - - - - - - -
31/06:30pm 17.6 N 6 8 1014.3 - 0.0 - - - - - - -
31/06:00pm 17.8 NNE 7 9 1014.1 - 0.0 - - - - - - -
31/05:30pm 18.2 NE 5 6 1013.7 - 0.0 - - - - - - -
31/05:00pm 18.8 NE 6 9 1013.6 - 0.0 - - - - - - -
31/04:30pm 19.1 NE 5 8 1013.6 - 0.0 - - - - - - -
31/04:00pm 19.2 ENE 5 7 1013.6 - 0.0 - - - - - - -
31/03:30pm 19.4 E 6 8 1013.5 - 0.0 - - - - - - -
31/03:00pm 19.5 ESE 6 8 1013.6 - 0.0 - - - - - - -
31/02:30pm 19.6 SE 8 10 1013.7 - 0.0 - - - - - - -
31/02:00pm 19.7 SE 8 10 1013.9 - 0.0 - - - - - - -
31/01:30pm 19.6 SSE 11 13 1014.0 - 0.0 - - - - - - -
31/01:00pm 19.5 SSE 12 15 1014.2 - 0.0 - - - - - - -
31/12:30pm 19.2 SSE 14 18 1014.3 - 0.0 - - - - - - -
31/12:00pm 18.9 SSE 14 17 1014.7 - 0.0 - - - - - - -
31/11:30am 18.3 S 13 17 1015.0 - 0.0 - - - - - - -
31/11:00am 18.3 SSE 14 18 1015.3 - 0.0 - - - - - - -
31/10:30am 18.1 S 15 17 1015.5 - 0.0 - - - - - - -
31/10:00am 17.6 S 16 20 1015.5 - 0.0 - - - - - - -
31/09:30am 17.4 S 15 19 1016.0 - 0.0 - - - - - - -
31/09:00am 17.0 S 12 16 1016.2 - 0.0 - - - - - - -
31/08:30am 16.7 S 10 14 1016.2 - 0.0 - - - - - - -
31/08:00am 16.0 S 10 14 1015.9 - 0.0 - - - - - - -
31/07:30am 15.4 SSW 10 14 1015.8 - 0.0 - - - - - - -
31/07:00am 14.9 SSW 12 15 1015.4 - 0.0 - - - - - - -
31/06:30am 14.6 SSW 14 16 1015.1 - 0.0 - - - - - - -
31/06:00am 14.5 SSW 14 17 1014.9 - 0.0 - - - - - - -
31/05:30am 14.8 SSW 16 19 1014.6 - 0.0 - - - - - - -
31/05:00am 14.6 SSW 16 20 1014.4 - 0.0 - - - - - - -
31/04:30am 14.4 SSW 17 22 1014.4 - 0.0 - - - - - - -
31/04:00am 13.8 SW 18 23 1014.3 - 0.0 - - - - - - -
31/03:30am 13.5 SW 19 23 1014.3 - 0.0 - - - - - - -
31/03:00am 13.4 SW 18 23 1014.6 - 0.0 - - - - - - -
31/02:30am 13.6 SW 17 21 1015.1 - 0.0 - - - - - - -
31/02:00am 13.9 SW 18 21 1015.1 - 0.0 - - - - - - -
31/01:30am 14.4 WSW 19 22 1015.2 - 0.0 - - - - - - -
31/01:00am 14.7 WSW 17 21 1015.6 - 0.0 - - - - - - -
31/12:30am 15.0 WSW 16 21 1015.9 - 0.0 - - - - - - -
31/12:00am 15.4 WSW 16 20 1016.2 - 0.0 - - - - - - -
 
Date/Time
EST
Temp

°C
Wind Pressure Rain
since 9am
mm
Weather Cloud Vis
km
Sea
Height
m
Swell
Dir
 
Speed
knots
Gust
knots
hPa Trend Height
m
Period
s
Dir
30/11:30pm 15.6 SW 16 22 1016.3 - 0.0 - - - - - - -
30/11:00pm 15.8 SSW 15 20 1016.4 - 0.0 - - - - - - -

Other Formats:

Comma delimited format used in spreadsheet applications
http://www.bom.gov.au/fwo/IDQ60701/IDQ60701.94584.axf

JavaScript Object Notation format (JSON) in row-major order
http://www.bom.gov.au/fwo/IDQ60701/IDQ60701.94584.json